sensor_id;sensor_type;location;lat;lon;timestamp;P1;durP1;ratioP1;P2;durP2;ratioP2
3591;SDS011;1810;48.720;9.094;2023-04-01T00:01:09;632.30;;;597.58;;
3591;SDS011;1810;48.720;9.094;2023-04-01T00:03:38;634.67;;;599.95;;
3591;SDS011;1810;48.720;9.094;2023-04-01T00:06:07;607.97;;;574.60;;
3591;SDS011;1810;48.720;9.094;2023-04-01T00:08:36;630.72;;;595.85;;
3591;SDS011;1810;48.720;9.094;2023-04-01T00:11:06;584.88;;;553.92;;
3591;SDS011;1810;48.720;9.094;2023-04-01T00:13:34;622.53;;;588.70;;
3591;SDS011;1810;48.720;9.094;2023-04-01T00:16:03;604.53;;;571.88;;
3591;SDS011;1810;48.720;9.094;2023-04-01T00:18:46;644.92;;;608.70;;
3591;SDS011;1810;48.720;9.094;2023-04-01T00:21:15;654.78;;;618.03;;
3591;SDS011;1810;48.720;9.094;2023-04-01T00:23:45;628.92;;;594.33;;
3591;SDS011;1810;48.720;9.094;2023-04-01T00:26:13;605.97;;;573.55;;
3591;SDS011;1810;48.720;9.094;2023-04-01T00:28:45;648.42;;;612.58;;
3591;SDS011;1810;48.720;9.094;2023-04-01T00:31:14;612.60;;;578.88;;
3591;SDS011;1810;48.720;9.094;2023-04-01T00:33:42;649.28;;;612.80;;
3591;SDS011;1810;48.720;9.094;2023-04-01T00:36:11;662.28;;;624.63;;
3591;SDS011;1810;48.720;9.094;2023-04-01T00:38:41;652.42;;;616.10;;
3591;SDS011;1810;48.720;9.094;2023-04-01T00:41:11;668.47;;;630.53;;
3591;SDS011;1810;48.720;9.094;2023-04-01T00:43:42;653.17;;;616.28;;
3591;SDS011;1810;48.720;9.094;2023-04-01T00:46:11;584.53;;;553.58;;
3591;SDS011;1810;48.720;9.094;2023-04-01T00:48:41;602.65;;;570.05;;
3591;SDS011;1810;48.720;9.094;2023-04-01T00:51:11;667.42;;;629.40;;
3591;SDS011;1810;48.720;9.094;2023-04-01T00:53:44;623.65;;;590.40;;
3591;SDS011;1810;48.720;9.094;2023-04-01T00:56:17;652.13;;;615.47;;
3591;SDS011;1810;48.720;9.094;2023-04-01T00:58:48;599.80;;;567.85;;
3591;SDS011;1810;48.720;9.094;2023-04-01T01:01:18;650.00;;;613.67;;
3591;SDS011;1810;48.720;9.094;2023-04-01T01:03:48;634.35;;;599.47;;
3591;SDS011;1810;48.720;9.094;2023-04-01T01:06:19;675.63;;;637.22;;
3591;SDS011;1810;48.720;9.094;2023-04-01T01:09:01;642.60;;;606.75;;
3591;SDS011;1810;48.720;9.094;2023-04-01T01:11:37;638.88;;;603.83;;
3591;SDS011;1810;48.720;9.094;2023-04-01T01:16:45;659.70;;;622.42;;
3591;SDS011;1810;48.720;9.094;2023-04-01T01:19:22;627.55;;;593.65;;
3591;SDS011;1810;48.720;9.094;2023-04-01T01:22:20;610.92;;;577.75;;
3591;SDS011;1810;48.720;9.094;2023-04-01T01:25:12;640.67;;;605.10;;
3591;SDS011;1810;48.720;9.094;2023-04-01T01:27:49;665.15;;;627.72;;
3591;SDS011;1810;48.720;9.094;2023-04-01T01:30:35;608.10;;;575.60;;
3591;SDS011;1810;48.720;9.094;2023-04-01T01:33:09;642.38;;;606.42;;
3591;SDS011;1810;48.720;9.094;2023-04-01T01:35:53;656.08;;;619.13;;
3591;SDS011;1810;48.720;9.094;2023-04-01T01:38:24;644.40;;;608.75;;
3591;SDS011;1810;48.720;9.094;2023-04-01T01:40:54;642.80;;;607.65;;
3591;SDS011;1810;48.720;9.094;2023-04-01T01:43:24;642.88;;;607.13;;
3591;SDS011;1810;48.720;9.094;2023-04-01T01:45:54;654.63;;;618.17;;
3591;SDS011;1810;48.720;9.094;2023-04-01T01:48:24;610.55;;;577.97;;
3591;SDS011;1810;48.720;9.094;2023-04-01T01:50:56;629.38;;;595.17;;
3591;SDS011;1810;48.720;9.094;2023-04-01T01:53:24;645.35;;;609.83;;
3591;SDS011;1810;48.720;9.094;2023-04-01T01:55:53;633.30;;;598.97;;
3591;SDS011;1810;48.720;9.094;2023-04-01T01:58:22;613.28;;;580.42;;
3591;SDS011;1810;48.720;9.094;2023-04-01T02:00:53;602.55;;;570.50;;
3591;SDS011;1810;48.720;9.094;2023-04-01T02:03:23;626.58;;;592.70;;
3591;SDS011;1810;48.720;9.094;2023-04-01T02:05:53;617.05;;;583.75;;
3591;SDS011;1810;48.720;9.094;2023-04-01T02:08:25;635.25;;;600.85;;
3591;SDS011;1810;48.720;9.094;2023-04-01T02:10:56;636.30;;;601.10;;
3591;SDS011;1810;48.720;9.094;2023-04-01T02:13:28;640.20;;;604.83;;
3591;SDS011;1810;48.720;9.094;2023-04-01T02:15:59;633.85;;;598.38;;
3591;SDS011;1810;48.720;9.094;2023-04-01T02:18:31;616.63;;;583.45;;
3591;SDS011;1810;48.720;9.094;2023-04-01T02:21:03;639.58;;;604.28;;
3591;SDS011;1810;48.720;9.094;2023-04-01T02:23:33;628.33;;;593.88;;
3591;SDS011;1810;48.720;9.094;2023-04-01T02:26:03;654.22;;;617.63;;
3591;SDS011;1810;48.720;9.094;2023-04-01T02:28:34;634.72;;;599.63;;
3591;SDS011;1810;48.720;9.094;2023-04-01T02:31:05;641.03;;;606.08;;
3591;SDS011;1810;48.720;9.094;2023-04-01T02:33:35;658.63;;;622.38;;
3591;SDS011;1810;48.720;9.094;2023-04-01T02:36:07;639.05;;;603.75;;
3591;SDS011;1810;48.720;9.094;2023-04-01T02:38:38;632.63;;;597.65;;
3591;SDS011;1810;48.720;9.094;2023-04-01T02:41:07;634.05;;;599.33;;
3591;SDS011;1810;48.720;9.094;2023-04-01T02:43:35;629.20;;;594.85;;
3591;SDS011;1810;48.720;9.094;2023-04-01T02:46:04;616.78;;;583.72;;
3591;SDS011;1810;48.720;9.094;2023-04-01T02:48:32;607.65;;;575.33;;
3591;SDS011;1810;48.720;9.094;2023-04-01T02:51:00;606.47;;;573.72;;
3591;SDS011;1810;48.720;9.094;2023-04-01T02:53:31;612.05;;;579.47;;
3591;SDS011;1810;48.720;9.094;2023-04-01T02:55:59;585.05;;;554.58;;
3591;SDS011;1810;48.720;9.094;2023-04-01T02:58:28;629.13;;;594.20;;
3591;SDS011;1810;48.720;9.094;2023-04-01T03:00:56;597.45;;;566.15;;
3591;SDS011;1810;48.720;9.094;2023-04-01T03:03:24;597.08;;;565.50;;
3591;SDS011;1810;48.720;9.094;2023-04-01T03:05:53;605.22;;;573.00;;
3591;SDS011;1810;48.720;9.094;2023-04-01T03:08:22;607.88;;;575.85;;
3591;SDS011;1810;48.720;9.094;2023-04-01T03:10:52;593.53;;;562.10;;
3591;SDS011;1810;48.720;9.094;2023-04-01T03:13:20;603.10;;;571.28;;
3591;SDS011;1810;48.720;9.094;2023-04-01T03:15:49;597.40;;;565.90;;
3591;SDS011;1810;48.720;9.094;2023-04-01T03:18:17;602.42;;;570.45;;
3591;SDS011;1810;48.720;9.094;2023-04-01T03:20:46;684.78;;;645.25;;
3591;SDS011;1810;48.720;9.094;2023-04-01T03:23:14;614.97;;;582.33;;
3591;SDS011;1810;48.720;9.094;2023-04-01T03:25:45;611.20;;;578.42;;
3591;SDS011;1810;48.720;9.094;2023-04-01T03:28:15;680.35;;;641.20;;
3591;SDS011;1810;48.720;9.094;2023-04-01T03:30:43;609.13;;;576.58;;
3591;SDS011;1810;48.720;9.094;2023-04-01T03:33:12;612.95;;;579.92;;
3591;SDS011;1810;48.720;9.094;2023-04-01T03:35:40;609.28;;;577.30;;
3591;SDS011;1810;48.720;9.094;2023-04-01T03:38:09;633.63;;;598.95;;
3591;SDS011;1810;48.720;9.094;2023-04-01T03:40:37;612.10;;;579.28;;
3591;SDS011;1810;48.720;9.094;2023-04-01T03:43:09;602.10;;;569.85;;
3591;SDS011;1810;48.720;9.094;2023-04-01T03:45:44;600.60;;;568.47;;
3591;SDS011;1810;48.720;9.094;2023-04-01T03:48:13;603.88;;;571.88;;
3591;SDS011;1810;48.720;9.094;2023-04-01T03:50:42;636.58;;;601.42;;
3591;SDS011;1810;48.720;9.094;2023-04-01T03:53:11;631.40;;;597.50;;
3591;SDS011;1810;48.720;9.094;2023-04-01T03:55:39;629.72;;;595.60;;
3591;SDS011;1810;48.720;9.094;2023-04-01T03:58:08;607.25;;;574.58;;
3591;SDS011;1810;48.720;9.094;2023-04-01T04:00:36;608.60;;;576.17;;
3591;SDS011;1810;48.720;9.094;2023-04-01T04:03:06;603.10;;;571.03;;
3591;SDS011;1810;48.720;9.094;2023-04-01T04:05:35;614.53;;;581.33;;
3591;SDS011;1810;48.720;9.094;2023-04-01T04:08:03;618.20;;;585.13;;
3591;SDS011;1810;48.720;9.094;2023-04-01T04:10:32;624.80;;;590.78;;
3591;SDS011;1810;48.720;9.094;2023-04-01T04:13:01;627.20;;;593.03;;
3591;SDS011;1810;48.720;9.094;2023-04-01T04:15:30;640.50;;;605.30;;
3591;SDS011;1810;48.720;9.094;2023-04-01T04:17:58;622.13;;;588.13;;
3591;SDS011;1810;48.720;9.094;2023-04-01T04:20:29;627.80;;;593.35;;
3591;SDS011;1810;48.720;9.094;2023-04-01T04:22:58;614.88;;;581.83;;
3591;SDS011;1810;48.720;9.094;2023-04-01T04:25:28;624.88;;;590.92;;
3591;SDS011;1810;48.720;9.094;2023-04-01T04:27:56;608.95;;;576.00;;
3591;SDS011;1810;48.720;9.094;2023-04-01T04:30:25;604.88;;;572.80;;
3591;SDS011;1810;48.720;9.094;2023-04-01T04:32:53;622.78;;;589.20;;
3591;SDS011;1810;48.720;9.094;2023-04-01T04:35:22;610.88;;;577.67;;
3591;SDS011;1810;48.720;9.094;2023-04-01T04:37:51;633.95;;;599.03;;
3591;SDS011;1810;48.720;9.094;2023-04-01T04:40:20;614.20;;;581.58;;
3591;SDS011;1810;48.720;9.094;2023-04-01T04:42:48;654.30;;;618.05;;
3591;SDS011;1810;48.720;9.094;2023-04-01T04:45:17;643.05;;;607.33;;
3591;SDS011;1810;48.720;9.094;2023-04-01T04:47:45;638.17;;;602.63;;
3591;SDS011;1810;48.720;9.094;2023-04-01T04:50:14;653.50;;;616.97;;
3591;SDS011;1810;48.720;9.094;2023-04-01T04:52:43;633.47;;;598.17;;
3591;SDS011;1810;48.720;9.094;2023-04-01T04:55:12;642.28;;;606.28;;
3591;SDS011;1810;48.720;9.094;2023-04-01T04:57:41;633.75;;;599.03;;
3591;SDS011;1810;48.720;9.094;2023-04-01T05:00:10;653.47;;;616.97;;
3591;SDS011;1810;48.720;9.094;2023-04-01T05:02:39;658.15;;;620.75;;
3591;SDS011;1810;48.720;9.094;2023-04-01T05:05:07;645.90;;;609.88;;
3591;SDS011;1810;48.720;9.094;2023-04-01T05:07:36;636.10;;;601.67;;
3591;SDS011;1810;48.720;9.094;2023-04-01T05:10:05;657.85;;;620.45;;
3591;SDS011;1810;48.720;9.094;2023-04-01T05:12:35;623.97;;;589.95;;
3591;SDS011;1810;48.720;9.094;2023-04-01T05:15:05;648.72;;;613.08;;
3591;SDS011;1810;48.720;9.094;2023-04-01T05:17:34;644.60;;;608.92;;
3591;SDS011;1810;48.720;9.094;2023-04-01T05:20:03;653.45;;;617.05;;
3591;SDS011;1810;48.720;9.094;2023-04-01T05:22:32;675.15;;;636.20;;
3591;SDS011;1810;48.720;9.094;2023-04-01T05:25:01;640.67;;;605.65;;
3591;SDS011;1810;48.720;9.094;2023-04-01T05:27:29;616.28;;;582.67;;
3591;SDS011;1810;48.720;9.094;2023-04-01T05:30:00;645.47;;;609.97;;
3591;SDS011;1810;48.720;9.094;2023-04-01T05:32:30;599.55;;;567.15;;
3591;SDS011;1810;48.720;9.094;2023-04-01T05:34:58;618.92;;;585.25;;
3591;SDS011;1810;48.720;9.094;2023-04-01T05:37:27;604.20;;;571.75;;
3591;SDS011;1810;48.720;9.094;2023-04-01T05:39:55;602.63;;;570.50;;
3591;SDS011;1810;48.720;9.094;2023-04-01T05:42:24;602.80;;;570.75;;
3591;SDS011;1810;48.720;9.094;2023-04-01T05:44:53;612.00;;;579.25;;
3591;SDS011;1810;48.720;9.094;2023-04-01T05:47:23;617.35;;;584.15;;
3591;SDS011;1810;48.720;9.094;2023-04-01T05:49:51;608.25;;;575.97;;
3591;SDS011;1810;48.720;9.094;2023-04-01T05:52:21;587.13;;;556.28;;
3591;SDS011;1810;48.720;9.094;2023-04-01T05:54:49;542.17;;;515.00;;
3591;SDS011;1810;48.720;9.094;2023-04-01T05:57:18;755.92;;;708.55;;
3591;SDS011;1810;48.720;9.094;2023-04-01T05:59:47;557.75;;;529.35;;
3591;SDS011;1810;48.720;9.094;2023-04-01T06:02:16;586.58;;;555.70;;
3591;SDS011;1810;48.720;9.094;2023-04-01T06:04:47;595.35;;;564.10;;
3591;SDS011;1810;48.720;9.094;2023-04-01T06:07:16;554.90;;;526.05;;
3591;SDS011;1810;48.720;9.094;2023-04-01T06:09:45;510.50;;;485.35;;
3591;SDS011;1810;48.720;9.094;2023-04-01T06:12:20;401.40;;;383.38;;
3591;SDS011;1810;48.720;9.094;2023-04-01T06:15:04;545.63;;;517.45;;
3591;SDS011;1810;48.720;9.094;2023-04-01T06:17:52;439.48;;;419.00;;
3591;SDS011;1810;48.720;9.094;2023-04-01T06:20:32;472.15;;;449.73;;
3591;SDS011;1810;48.720;9.094;2023-04-01T06:23:10;420.17;;;400.67;;
3591;SDS011;1810;48.720;9.094;2023-04-01T06:32:39;395.58;;;377.65;;
3591;SDS011;1810;48.720;9.094;2023-04-01T06:35:27;462.33;;;440.27;;
3591;SDS011;1810;48.720;9.094;2023-04-01T06:38:15;433.35;;;413.35;;
3591;SDS011;1810;48.720;9.094;2023-04-01T06:40:52;404.70;;;385.98;;
3591;SDS011;1810;48.720;9.094;2023-04-01T06:43:37;458.73;;;437.23;;
3591;SDS011;1810;48.720;9.094;2023-04-01T06:46:14;505.88;;;480.35;;
3591;SDS011;1810;48.720;9.094;2023-04-01T06:48:49;420.10;;;400.83;;
3591;SDS011;1810;48.720;9.094;2023-04-01T06:51:30;419.52;;;400.42;;
3591;SDS011;1810;48.720;9.094;2023-04-01T06:54:04;535.33;;;508.48;;
3591;SDS011;1810;48.720;9.094;2023-04-01T06:56:37;471.88;;;449.75;;
3591;SDS011;1810;48.720;9.094;2023-04-01T06:59:10;682.25;;;641.33;;
3591;SDS011;1810;48.720;9.094;2023-04-01T07:01:41;583.33;;;550.80;;
3591;SDS011;1810;48.720;9.094;2023-04-01T07:04:13;490.55;;;466.65;;
3591;SDS011;1810;48.720;9.094;2023-04-01T07:06:52;576.70;;;546.60;;
3591;SDS011;1810;48.720;9.094;2023-04-01T07:09:24;586.05;;;555.10;;
3591;SDS011;1810;48.720;9.094;2023-04-01T07:11:56;523.38;;;497.27;;
3591;SDS011;1810;48.720;9.094;2023-04-01T07:14:28;402.92;;;384.83;;
3591;SDS011;1810;48.720;9.094;2023-04-01T07:17:00;561.03;;;532.33;;
3591;SDS011;1810;48.720;9.094;2023-04-01T07:19:34;459.83;;;438.00;;
3591;SDS011;1810;48.720;9.094;2023-04-01T07:22:15;405.88;;;387.70;;
3591;SDS011;1810;48.720;9.094;2023-04-01T07:24:49;458.40;;;436.95;;
3591;SDS011;1810;48.720;9.094;2023-04-01T07:27:18;480.73;;;457.45;;
3591;SDS011;1810;48.720;9.094;2023-04-01T07:29:46;486.40;;;462.98;;
3591;SDS011;1810;48.720;9.094;2023-04-01T07:32:21;441.33;;;420.52;;
3591;SDS011;1810;48.720;9.094;2023-04-01T07:35:00;506.38;;;481.50;;
3591;SDS011;1810;48.720;9.094;2023-04-01T07:37:38;526.15;;;499.70;;
3591;SDS011;1810;48.720;9.094;2023-04-01T07:40:14;548.53;;;520.55;;
3591;SDS011;1810;48.720;9.094;2023-04-01T07:42:54;519.28;;;493.58;;
3591;SDS011;1810;48.720;9.094;2023-04-01T07:45:34;515.13;;;489.48;;
3591;SDS011;1810;48.720;9.094;2023-04-01T07:48:12;524.17;;;498.17;;
3591;SDS011;1810;48.720;9.094;2023-04-01T07:50:49;422.40;;;403.05;;
3591;SDS011;1810;48.720;9.094;2023-04-01T07:53:25;489.33;;;465.70;;
3591;SDS011;1810;48.720;9.094;2023-04-01T07:56:00;518.22;;;491.42;;
3591;SDS011;1810;48.720;9.094;2023-04-01T07:58:37;500.88;;;476.48;;
3591;SDS011;1810;48.720;9.094;2023-04-01T08:01:13;489.20;;;465.27;;
3591;SDS011;1810;48.720;9.094;2023-04-01T08:03:54;483.40;;;460.50;;
3591;SDS011;1810;48.720;9.094;2023-04-01T08:06:45;418.33;;;399.45;;
3591;SDS011;1810;48.720;9.094;2023-04-01T08:09:23;417.35;;;398.33;;
3591;SDS011;1810;48.720;9.094;2023-04-01T08:12:01;511.33;;;486.05;;
3591;SDS011;1810;48.720;9.094;2023-04-01T08:14:49;465.73;;;443.67;;
3591;SDS011;1810;48.720;9.094;2023-04-01T08:17:26;509.52;;;484.52;;
3591;SDS011;1810;48.720;9.094;2023-04-01T08:20:18;685.72;;;641.85;;
3591;SDS011;1810;48.720;9.094;2023-04-01T08:22:57;490.13;;;465.95;;
3591;SDS011;1810;48.720;9.094;2023-04-01T08:25:29;760.00;;;710.72;;
3591;SDS011;1810;48.720;9.094;2023-04-01T08:28:03;524.78;;;498.42;;
3591;SDS011;1810;48.720;9.094;2023-04-01T08:30:38;580.25;;;548.45;;
3591;SDS011;1810;48.720;9.094;2023-04-01T08:33:11;498.77;;;474.75;;
3591;SDS011;1810;48.720;9.094;2023-04-01T08:35:42;507.35;;;482.70;;
3591;SDS011;1810;48.720;9.094;2023-04-01T08:38:16;488.50;;;464.95;;
3591;SDS011;1810;48.720;9.094;2023-04-01T08:40:54;602.28;;;569.70;;
3591;SDS011;1810;48.720;9.094;2023-04-01T08:49:47;588.05;;;556.45;;
3591;SDS011;1810;48.720;9.094;2023-04-01T08:52:37;583.17;;;551.97;;
3591;SDS011;1810;48.720;9.094;2023-04-01T08:55:20;713.53;;;670.17;;
3591;SDS011;1810;48.720;9.094;2023-04-01T08:57:58;619.63;;;585.60;;
3591;SDS011;1810;48.720;9.094;2023-04-01T09:00:47;752.83;;;705.38;;
3591;SDS011;1810;48.720;9.094;2023-04-01T09:03:25;621.85;;;588.25;;
3591;SDS011;1810;48.720;9.094;2023-04-01T09:06:21;630.42;;;595.35;;
3591;SDS011;1810;48.720;9.094;2023-04-01T09:09:06;705.80;;;664.33;;
3591;SDS011;1810;48.720;9.094;2023-04-01T09:11:58;602.40;;;569.92;;
3591;SDS011;1810;48.720;9.094;2023-04-01T09:14:53;708.95;;;665.95;;
3591;SDS011;1810;48.720;9.094;2023-04-01T09:17:48;623.25;;;589.30;;
3591;SDS011;1810;48.720;9.094;2023-04-01T09:23:38;797.17;;;744.88;;
3591;SDS011;1810;48.720;9.094;2023-04-01T09:29:16;510.88;;;485.90;;
3591;SDS011;1810;48.720;9.094;2023-04-01T09:34:54;442.02;;;421.27;;
3591;SDS011;1810;48.720;9.094;2023-04-01T09:37:26;447.20;;;426.70;;
3591;SDS011;1810;48.720;9.094;2023-04-01T09:40:14;497.48;;;472.33;;
3591;SDS011;1810;48.720;9.094;2023-04-01T09:42:45;463.08;;;441.27;;
3591;SDS011;1810;48.720;9.094;2023-04-01T09:45:37;491.25;;;466.90;;
3591;SDS011;1810;48.720;9.094;2023-04-01T09:48:17;554.20;;;525.60;;
3591;SDS011;1810;48.720;9.094;2023-04-01T09:50:57;445.42;;;424.73;;
3591;SDS011;1810;48.720;9.094;2023-04-01T09:53:36;572.28;;;541.33;;
3591;SDS011;1810;48.720;9.094;2023-04-01T09:56:32;493.95;;;469.77;;
3591;SDS011;1810;48.720;9.094;2023-04-01T09:59:23;511.13;;;486.17;;
3591;SDS011;1810;48.720;9.094;2023-04-01T10:02:08;553.78;;;525.28;;
3591;SDS011;1810;48.720;9.094;2023-04-01T10:05:19;489.77;;;466.42;;
3591;SDS011;1810;48.720;9.094;2023-04-01T10:10:57;439.15;;;418.90;;
3591;SDS011;1810;48.720;9.094;2023-04-01T10:13:52;544.83;;;516.78;;
3591;SDS011;1810;48.720;9.094;2023-04-01T10:22:37;471.98;;;449.35;;
3591;SDS011;1810;48.720;9.094;2023-04-01T10:25:42;509.02;;;483.58;;
3591;SDS011;1810;48.720;9.094;2023-04-01T10:28:42;567.95;;;537.38;;
3591;SDS011;1810;48.720;9.094;2023-04-01T10:31:47;433.63;;;413.83;;
3591;SDS011;1810;48.720;9.094;2023-04-01T10:37:34;471.83;;;449.08;;
3591;SDS011;1810;48.720;9.094;2023-04-01T10:40:37;528.45;;;502.25;;
3591;SDS011;1810;48.720;9.094;2023-04-01T10:43:24;531.60;;;505.38;;
3591;SDS011;1810;48.720;9.094;2023-04-01T10:46:21;596.88;;;564.03;;
3591;SDS011;1810;48.720;9.094;2023-04-01T10:49:34;531.60;;;505.05;;
3591;SDS011;1810;48.720;9.094;2023-04-01T10:55:42;558.20;;;529.53;;
3591;SDS011;1810;48.720;9.094;2023-04-01T11:04:55;584.80;;;554.22;;
3591;SDS011;1810;48.720;9.094;2023-04-01T11:11:10;559.67;;;530.72;;
3591;SDS011;1810;48.720;9.094;2023-04-01T11:16:55;495.52;;;471.77;;
3591;SDS011;1810;48.720;9.094;2023-04-01T11:19:56;456.55;;;435.02;;
3591;SDS011;1810;48.720;9.094;2023-04-01T11:22:56;465.95;;;443.88;;
3591;SDS011;1810;48.720;9.094;2023-04-01T11:25:41;450.55;;;429.77;;
3591;SDS011;1810;48.720;9.094;2023-04-01T11:31:35;467.50;;;445.35;;
3591;SDS011;1810;48.720;9.094;2023-04-01T11:34:22;485.08;;;461.77;;
3591;SDS011;1810;48.720;9.094;2023-04-01T11:37:05;548.70;;;519.63;;
3591;SDS011;1810;48.720;9.094;2023-04-01T11:39:40;477.88;;;455.05;;
3591;SDS011;1810;48.720;9.094;2023-04-01T11:42:29;521.90;;;495.95;;
3591;SDS011;1810;48.720;9.094;2023-04-01T11:45:08;710.92;;;667.65;;
3591;SDS011;1810;48.720;9.094;2023-04-01T11:50:45;648.03;;;611.05;;
3591;SDS011;1810;48.720;9.094;2023-04-01T11:53:31;626.60;;;591.90;;
3591;SDS011;1810;48.720;9.094;2023-04-01T11:56:14;602.08;;;569.38;;
3591;SDS011;1810;48.720;9.094;2023-04-01T11:58:54;505.85;;;481.15;;
3591;SDS011;1810;48.720;9.094;2023-04-01T12:02:01;621.60;;;586.90;;
3591;SDS011;1810;48.720;9.094;2023-04-01T12:04:41;518.50;;;492.75;;
3591;SDS011;1810;48.720;9.094;2023-04-01T12:07:21;546.53;;;518.80;;
3591;SDS011;1810;48.720;9.094;2023-04-01T12:09:59;551.30;;;523.28;;
3591;SDS011;1810;48.720;9.094;2023-04-01T12:12:35;571.55;;;541.05;;
3591;SDS011;1810;48.720;9.094;2023-04-01T12:15:25;565.08;;;535.60;;
3591;SDS011;1810;48.720;9.094;2023-04-01T12:18:03;548.78;;;521.03;;
3591;SDS011;1810;48.720;9.094;2023-04-01T12:20:40;558.55;;;529.83;;
3591;SDS011;1810;48.720;9.094;2023-04-01T12:23:23;546.70;;;518.58;;
3591;SDS011;1810;48.720;9.094;2023-04-01T12:26:14;694.13;;;649.40;;
3591;SDS011;1810;48.720;9.094;2023-04-01T12:28:55;642.25;;;605.85;;
3591;SDS011;1810;48.720;9.094;2023-04-01T12:31:36;496.67;;;472.65;;
3591;SDS011;1810;48.720;9.094;2023-04-01T12:34:17;521.40;;;495.42;;
3591;SDS011;1810;48.720;9.094;2023-04-01T12:37:11;544.40;;;516.42;;
3591;SDS011;1810;48.720;9.094;2023-04-01T12:42:41;562.78;;;532.40;;
3591;SDS011;1810;48.720;9.094;2023-04-01T12:45:21;526.42;;;500.38;;
3591;SDS011;1810;48.720;9.094;2023-04-01T12:48:02;592.72;;;561.15;;
3591;SDS011;1810;48.720;9.094;2023-04-01T12:50:53;581.40;;;551.30;;
3591;SDS011;1810;48.720;9.094;2023-04-01T12:53:45;556.67;;;528.25;;
3591;SDS011;1810;48.720;9.094;2023-04-01T12:56:22;583.53;;;552.92;;
3591;SDS011;1810;48.720;9.094;2023-04-01T12:59:13;614.75;;;582.08;;
3591;SDS011;1810;48.720;9.094;2023-04-01T13:01:59;558.42;;;529.85;;
3591;SDS011;1810;48.720;9.094;2023-04-01T13:04:48;766.72;;;715.03;;
3591;SDS011;1810;48.720;9.094;2023-04-01T13:07:50;603.53;;;571.75;;
3591;SDS011;1810;48.720;9.094;2023-04-01T13:10:30;572.15;;;542.78;;
3591;SDS011;1810;48.720;9.094;2023-04-01T13:13:26;581.35;;;550.95;;
3591;SDS011;1810;48.720;9.094;2023-04-01T13:16:15;551.65;;;523.17;;
3591;SDS011;1810;48.720;9.094;2023-04-01T13:18:52;577.50;;;547.40;;
3591;SDS011;1810;48.720;9.094;2023-04-01T13:21:27;587.08;;;555.92;;
3591;SDS011;1810;48.720;9.094;2023-04-01T13:24:03;580.35;;;550.30;;
3591;SDS011;1810;48.720;9.094;2023-04-01T13:26:53;720.72;;;676.00;;
3591;SDS011;1810;48.720;9.094;2023-04-01T13:29:25;646.08;;;610.00;;
3591;SDS011;1810;48.720;9.094;2023-04-01T13:32:01;563.17;;;534.47;;
3591;SDS011;1810;48.720;9.094;2023-04-01T13:34:39;602.35;;;569.80;;
3591;SDS011;1810;48.720;9.094;2023-04-01T13:37:19;561.22;;;532.05;;
3591;SDS011;1810;48.720;9.094;2023-04-01T13:39:59;555.88;;;527.42;;
3591;SDS011;1810;48.720;9.094;2023-04-01T13:42:44;530.97;;;504.05;;
3591;SDS011;1810;48.720;9.094;2023-04-01T13:45:15;569.35;;;540.03;;
3591;SDS011;1810;48.720;9.094;2023-04-01T13:48:00;534.25;;;507.65;;
3591;SDS011;1810;48.720;9.094;2023-04-01T13:53:59;504.38;;;479.98;;
3591;SDS011;1810;48.720;9.094;2023-04-01T13:56:49;544.30;;;516.60;;
3591;SDS011;1810;48.720;9.094;2023-04-01T13:59:31;549.58;;;521.40;;
3591;SDS011;1810;48.720;9.094;2023-04-01T14:02:19;619.95;;;585.50;;
3591;SDS011;1810;48.720;9.094;2023-04-01T14:05:01;672.60;;;632.75;;
3591;SDS011;1810;48.720;9.094;2023-04-01T14:07:49;513.03;;;487.63;;
3591;SDS011;1810;48.720;9.094;2023-04-01T14:10:28;527.33;;;501.08;;
3591;SDS011;1810;48.720;9.094;2023-04-01T14:13:04;544.20;;;516.53;;
3591;SDS011;1810;48.720;9.094;2023-04-01T14:15:52;553.47;;;525.38;;
3591;SDS011;1810;48.720;9.094;2023-04-01T14:18:30;524.90;;;498.55;;
3591;SDS011;1810;48.720;9.094;2023-04-01T14:21:15;711.40;;;668.20;;
3591;SDS011;1810;48.720;9.094;2023-04-01T14:23:53;554.92;;;526.53;;
3591;SDS011;1810;48.720;9.094;2023-04-01T14:26:53;534.40;;;507.85;;
3591;SDS011;1810;48.720;9.094;2023-04-01T14:29:31;500.05;;;475.63;;
3591;SDS011;1810;48.720;9.094;2023-04-01T14:32:07;528.15;;;501.83;;
3591;SDS011;1810;48.720;9.094;2023-04-01T14:34:44;566.92;;;537.25;;
3591;SDS011;1810;48.720;9.094;2023-04-01T14:37:31;536.22;;;509.10;;
3591;SDS011;1810;48.720;9.094;2023-04-01T14:43:16;544.22;;;516.63;;
3591;SDS011;1810;48.720;9.094;2023-04-01T14:46:19;551.53;;;523.70;;
3591;SDS011;1810;48.720;9.094;2023-04-01T14:49:02;525.63;;;499.45;;
3591;SDS011;1810;48.720;9.094;2023-04-01T14:51:41;529.70;;;503.02;;
3591;SDS011;1810;48.720;9.094;2023-04-01T14:54:14;490.55;;;466.70;;
3591;SDS011;1810;48.720;9.094;2023-04-01T14:56:49;537.35;;;510.48;;
3591;SDS011;1810;48.720;9.094;2023-04-01T14:59:26;529.47;;;503.33;;
3591;SDS011;1810;48.720;9.094;2023-04-01T15:01:58;545.17;;;517.33;;
3591;SDS011;1810;48.720;9.094;2023-04-01T15:04:36;729.42;;;684.10;;
3591;SDS011;1810;48.720;9.094;2023-04-01T15:07:21;560.47;;;531.58;;
3591;SDS011;1810;48.720;9.094;2023-04-01T15:10:13;515.60;;;490.10;;
3591;SDS011;1810;48.720;9.094;2023-04-01T15:12:54;538.85;;;511.73;;
3591;SDS011;1810;48.720;9.094;2023-04-01T15:15:30;625.03;;;590.47;;
3591;SDS011;1810;48.720;9.094;2023-04-01T15:18:14;550.60;;;522.58;;
3591;SDS011;1810;48.720;9.094;2023-04-01T15:20:48;521.67;;;495.83;;
3591;SDS011;1810;48.720;9.094;2023-04-01T15:23:25;530.45;;;504.05;;
3591;SDS011;1810;48.720;9.094;2023-04-01T15:26:07;542.83;;;515.38;;
3591;SDS011;1810;48.720;9.094;2023-04-01T15:29:04;529.88;;;503.48;;
3591;SDS011;1810;48.720;9.094;2023-04-01T15:31:42;547.25;;;519.90;;
3591;SDS011;1810;48.720;9.094;2023-04-01T15:34:23;517.22;;;491.70;;
3591;SDS011;1810;48.720;9.094;2023-04-01T15:36:56;485.95;;;462.58;;
3591;SDS011;1810;48.720;9.094;2023-04-01T15:39:30;591.97;;;559.50;;
3591;SDS011;1810;48.720;9.094;2023-04-01T15:42:11;516.10;;;490.92;;
3591;SDS011;1810;48.720;9.094;2023-04-01T15:44:54;579.30;;;547.75;;
3591;SDS011;1810;48.720;9.094;2023-04-01T15:47:44;576.72;;;545.67;;
3591;SDS011;1810;48.720;9.094;2023-04-01T15:53:30;529.28;;;502.95;;
3591;SDS011;1810;48.720;9.094;2023-04-01T15:56:26;488.45;;;464.83;;
3591;SDS011;1810;48.720;9.094;2023-04-01T15:59:06;503.70;;;479.08;;
3591;SDS011;1810;48.720;9.094;2023-04-01T16:01:58;487.80;;;464.17;;
3591;SDS011;1810;48.720;9.094;2023-04-01T16:04:47;531.25;;;504.08;;
3591;SDS011;1810;48.720;9.094;2023-04-01T16:07:39;487.33;;;463.93;;
3591;SDS011;1810;48.720;9.094;2023-04-01T16:10:23;516.22;;;491.17;;
3591;SDS011;1810;48.720;9.094;2023-04-01T16:16:07;503.63;;;479.15;;
3591;SDS011;1810;48.720;9.094;2023-04-01T16:18:47;472.48;;;450.30;;
3591;SDS011;1810;48.720;9.094;2023-04-01T16:21:34;513.08;;;487.70;;
3591;SDS011;1810;48.720;9.094;2023-04-01T16:24:10;657.05;;;617.67;;
3591;SDS011;1810;48.720;9.094;2023-04-01T16:26:44;494.52;;;470.20;;
3591;SDS011;1810;48.720;9.094;2023-04-01T16:29:20;535.03;;;508.05;;
3591;SDS011;1810;48.720;9.094;2023-04-01T16:31:55;432.33;;;412.38;;
3591;SDS011;1810;48.720;9.094;2023-04-01T16:34:27;483.42;;;460.58;;